Time;durP1;ratioP1;P1;durP2;ratioP2;P2;SDS_P1;SDS_P2;PMS_P1;PMS_P2;Temp;Humidity;BMP_temperature;BMP_pressure;BME280_temperature;BME280_humidity;BME280_pressure;Samples;Min_cycle;Max_cycle;Signal;HPM_P1;HPM_P2
2023/01/20 00:00:10;;;;;;;3.17;2.70;;;-1.10;99.90;;;;;;4958181;28;20051;-64
2023/01/20 00:02:37;;;;;;;4.15;2.97;;;-1.10;99.90;;;;;;4956250;28;20059;-64
2023/01/20 00:05:04;;;;;;;7.53;2.75;;;-1.10;99.90;;;;;;4958460;28;20066;-64
2023/01/20 00:07:33;;;;;;;4.03;2.97;;;-1.20;99.90;;;;;;4958856;28;20059;-64
2023/01/20 00:10:00;;;;;;;4.55;2.92;;;-1.20;99.90;;;;;;4958089;28;20070;-64
2023/01/20 00:12:30;;;;;;;5.45;2.70;;;-1.20;99.90;;;;;;4958680;28;20054;-65
2023/01/20 00:14:57;;;;;;;3.80;2.50;;;-1.20;99.90;;;;;;4959337;28;20051;-65
2023/01/20 00:17:26;;;;;;;3.85;2.90;;;-1.20;99.90;;;;;;4958071;28;20047;-65
2023/01/20 00:19:52;;;;;;;4.13;2.65;;;-1.30;99.90;;;;;;4975894;28;20038;-64
2023/01/20 00:22:20;;;;;;;6.60;3.03;;;-1.30;99.90;;;;;;4975751;28;20050;-65
2023/01/20 00:24:47;;;;;;;6.80;3.45;;;-1.30;99.90;;;;;;4953006;29;20741;-65
2023/01/20 00:27:15;;;;;;;6.93;2.90;;;-1.30;99.90;;;;;;4956306;29;20134;-64
2023/01/20 00:29:43;;;;;;;5.50;2.85;;;-1.40;99.90;;;;;;4939275;29;20476;-65
2023/01/20 00:32:10;;;;;;;4.30;2.65;;;-1.40;99.90;;;;;;4939278;29;20119;-65
2023/01/20 00:34:38;;;;;;;6.35;2.95;;;-1.40;99.90;;;;;;4945715;28;20410;-65
2023/01/20 00:37:05;;;;;;;3.25;2.88;;;-1.40;99.90;;;;;;4956381;29;20062;-65
2023/01/20 00:39:32;;;;;;;6.22;2.72;;;-1.50;99.90;;;;;;4938881;29;20067;-65
2023/01/20 00:41:59;;;;;;;4.95;2.92;;;-1.50;99.90;;;;;;4939296;29;20388;-65
2023/01/20 00:44:26;;;;;;;8.75;3.60;;;-1.40;99.90;;;;;;4956421;29;20051;-65
2023/01/20 00:46:53;;;;;;;7.03;4.13;;;-1.40;99.90;;;;;;4939674;29;20051;-65
2023/01/20 00:49:20;;;;;;;8.52;4.60;;;-1.40;99.90;;;;;;4939282;29;20075;-65
2023/01/20 00:51:48;;;;;;;6.70;4.55;;;-1.30;99.90;;;;;;4938657;29;20074;-64
2023/01/20 00:54:15;;;;;;;7.05;4.60;;;-1.20;99.90;;;;;;4939031;29;20058;-64
2023/01/20 00:56:42;;;;;;;10.68;5.85;;;-1.20;99.90;;;;;;4955452;29;20055;-65
2023/01/20 00:59:09;;;;;;;18.55;7.78;;;-1.10;99.90;;;;;;4938388;29;20111;-65
2023/01/20 01:01:36;;;;;;;16.88;6.57;;;-1.00;99.90;;;;;;4938804;29;20052;-65
2023/01/20 01:04:03;;;;;;;20.38;8.40;;;-0.70;99.90;;;;;;4955749;29;20047;-65
2023/01/20 01:06:30;;;;;;;20.95;9.18;;;-0.90;99.90;;;;;;4938569;29;20058;-64
2023/01/20 01:08:58;;;;;;;31.02;9.75;;;-0.80;99.90;;;;;;4955777;29;20506;-65
2023/01/20 01:11:25;;;;;;;36.80;9.68;;;-0.80;99.90;;;;;;4955567;29;20054;-65
2023/01/20 01:13:52;;;;;;;45.13;10.32;;;-0.70;99.90;;;;;;4938481;29;20420;-64
2023/01/20 01:16:19;;;;;;;88.57;14.02;;;-0.70;99.90;;;;;;4939100;29;20051;-65
2023/01/20 01:18:46;;;;;;;53.08;11.52;;;-0.70;99.90;;;;;;4939053;29;20051;-65
2023/01/20 01:21:16;;;;;;;62.33;13.05;;;-0.60;99.90;;;;;;4938006;29;20055;-64
2023/01/20 01:23:43;;;;;;;85.35;16.42;;;-0.60;99.90;;;;;;4939042;29;20059;-66
2023/01/20 01:26:11;;;;;;;91.95;15.50;;;-0.60;99.90;;;;;;4953776;28;20062;-65
2023/01/20 01:28:39;;;;;;;53.83;12.05;;;-0.50;99.90;;;;;;4972383;28;20161;-65
2023/01/20 01:31:07;;;;;;;80.95;15.15;;;-0.50;99.90;;;;;;4939060;28;20043;-65
2023/01/20 01:33:35;;;;;;;78.10;15.57;;;-0.20;99.90;;;;;;4956134;28;20535;-64
2023/01/20 01:36:03;;;;;;;135.00;17.88;;;-0.50;99.90;;;;;;4938586;28;20051;-65
2023/01/20 01:38:31;;;;;;;85.10;15.32;;;-0.50;99.90;;;;;;4972765;28;20268;-65
2023/01/20 01:40:58;;;;;;;126.22;17.20;;;-0.50;99.90;;;;;;4974046;28;20046;-66
2023/01/20 01:43:27;;;;;;;92.22;17.40;;;-0.50;99.90;;;;;;4957575;28;20411;-65
2023/01/20 01:45:54;;;;;;;42.67;14.80;;;-0.40;99.90;;;;;;4974795;28;20053;-65
2023/01/20 01:48:23;;;;;;;36.10;12.00;;;-0.40;99.90;;;;;;4956716;28;20442;-65
2023/01/20 01:50:55;;;;;;;25.17;13.13;;;-0.50;99.90;;;;;;4974692;28;20073;-66
2023/01/20 01:53:23;;;;;;;21.20;11.90;;;-0.50;99.90;;;;;;4955099;28;20050;-66
2023/01/20 01:55:55;;;;;;;20.00;11.90;;;-0.50;99.90;;;;;;4973954;28;20055;-65
2023/01/20 01:58:27;;;;;;;16.73;10.45;;;-0.50;99.90;;;;;;4974285;28;20050;-65
2023/01/20 02:00:54;;;;;;;17.40;9.93;;;-0.60;99.90;;;;;;4974329;28;20058;-65
2023/01/20 02:03:21;;;;;;;15.13;9.25;;;-0.70;99.90;;;;;;4971855;28;20062;-65
2023/01/20 02:05:50;;;;;;;14.63;9.13;;;-0.80;99.90;;;;;;4974105;28;20043;-65
2023/01/20 02:08:17;;;;;;;16.70;9.20;;;-0.80;99.90;;;;;;4974325;28;20458;-64
2023/01/20 02:10:44;;;;;;;14.00;8.70;;;-0.90;99.90;;;;;;4973519;28;20050;-65
2023/01/20 02:13:12;;;;;;;14.40;8.63;;;-0.90;99.90;;;;;;4956988;28;20062;-65
2023/01/20 02:15:49;;;;;;;14.48;9.48;;;-1.00;99.90;;;;;;4974416;28;20046;-64
2023/01/20 02:18:41;;;;;;;14.43;9.02;;;-1.10;99.90;;;;;;4972774;28;20398;-65
2023/01/20 02:21:59;;;;;;;14.73;8.00;;;-1.10;99.90;;;;;;4956396;28;20055;-65
2023/01/20 02:24:51;;;;;;;14.00;8.23;;;-1.10;99.90;;;;;;4956477;28;20073;-65
2023/01/20 02:27:23;;;;;;;14.32;8.18;;;-1.00;99.90;;;;;;4954457;28;20073;-65
2023/01/20 02:30:32;;;;;;;12.75;8.05;;;-1.20;99.90;;;;;;4975731;28;20051;-64
2023/01/20 02:33:20;;;;;;;11.18;7.60;;;-1.20;99.90;;;;;;4923856;28;20130;-65
2023/01/20 02:35:51;;;;;;;13.43;7.90;;;-1.20;99.90;;;;;;4956542;28;20046;-65
2023/01/20 02:38:29;;;;;;;14.95;8.48;;;-1.20;99.90;;;;;;4956134;28;20049;-65
2023/01/20 02:41:04;;;;;;;18.27;8.85;;;-1.20;99.90;;;;;;4972631;28;20042;-66
2023/01/20 02:43:37;;;;;;;12.68;8.00;;;-1.00;99.90;;;;;;4956162;28;20141;-66
2023/01/20 02:46:09;;;;;;;17.67;9.50;;;-1.30;99.90;;;;;;4972764;28;20058;-65
2023/01/20 02:48:43;;;;;;;13.80;8.85;;;-1.30;99.90;;;;;;4973167;28;20087;-66
2023/01/20 02:51:12;;;;;;;13.48;9.07;;;-1.30;99.90;;;;;;4956125;28;20043;-66
2023/01/20 02:53:44;;;;;;;18.30;9.55;;;-1.30;99.90;;;;;;4956798;28;20138;-65
2023/01/20 02:56:13;;;;;;;17.73;9.55;;;-1.20;99.90;;;;;;4954235;28;20050;-65
2023/01/20 02:58:45;;;;;;;17.08;10.10;;;-1.20;99.90;;;;;;4955713;28;20046;-66
2023/01/20 03:01:17;;;;;;;19.48;10.63;;;-1.20;99.90;;;;;;4956392;28;20069;-65
2023/01/20 03:03:47;;;;;;;14.95;10.13;;;-1.00;99.90;;;;;;4956266;28;20055;-66
2023/01/20 03:06:18;;;;;;;17.80;10.30;;;-1.30;99.90;;;;;;4972896;28;20082;-67
2023/01/20 03:08:48;;;;;;;16.55;10.77;;;-1.20;99.90;;;;;;4972538;28;20121;-65
2023/01/20 03:11:15;;;;;;;17.77;10.43;;;-1.30;99.90;;;;;;4972818;28;20054;-65
2023/01/20 03:13:50;;;;;;;16.63;9.70;;;-1.20;99.90;;;;;;4955413;28;20113;-66
2023/01/20 03:16:20;;;;;;;16.63;10.90;;;-1.30;99.90;;;;;;4973104;28;20051;-65
2023/01/20 03:18:49;;;;;;;15.38;10.73;;;-1.20;99.90;;;;;;4970223;28;20050;-66
2023/01/20 03:21:16;;;;;;;15.85;11.10;;;-1.20;99.90;;;;;;4970405;28;20122;-66
2023/01/20 03:23:47;;;;;;;19.90;12.27;;;-1.20;99.90;;;;;;4972085;28;20112;-66
2023/01/20 03:26:16;;;;;;;17.65;11.15;;;-1.20;99.90;;;;;;4969620;28;20065;-64
2023/01/20 03:28:44;;;;;;;20.58;12.20;;;-1.20;99.90;;;;;;4973232;28;20519;-65
2023/01/20 03:31:19;;;;;;;21.05;12.15;;;-1.20;99.90;;;;;;4972548;28;20504;-64
2023/01/20 03:33:51;;;;;;;18.33;12.43;;;-1.10;99.90;;;;;;4955221;28;20047;-65
2023/01/20 03:36:20;;;;;;;21.08;12.55;;;-1.00;99.90;;;;;;4956454;28;20054;-65
2023/01/20 03:38:48;;;;;;;20.00;12.75;;;-0.90;99.90;;;;;;4955533;28;20046;-64
2023/01/20 03:41:23;;;;;;;24.25;14.68;;;-0.80;99.90;;;;;;4972276;28;20070;-64
2023/01/20 03:43:57;;;;;;;22.90;14.00;;;-0.70;99.90;;;;;;4955889;28;20059;-65
2023/01/20 03:46:30;;;;;;;26.17;16.65;;;-0.60;99.90;;;;;;4972610;28;20046;-66
2023/01/20 03:49:07;;;;;;;28.05;16.98;;;-0.60;99.90;;;;;;4972027;28;20050;-64
2023/01/20 03:51:43;;;;;;;31.88;16.60;;;-0.50;99.90;;;;;;4971643;28;20050;-65
2023/01/20 03:54:15;;;;;;;31.67;17.48;;;-0.40;99.90;;;;;;4972244;28;20530;-65
2023/01/20 03:56:48;;;;;;;31.92;17.27;;;-0.40;99.90;;;;;;4971921;28;20508;-65
2023/01/20 03:59:19;;;;;;;28.77;17.08;;;-0.30;99.90;;;;;;4955227;28;20043;-65
2023/01/20 04:01:48;;;;;;;34.72;18.08;;;-0.30;99.90;;;;;;4954124;28;20066;-65
2023/01/20 04:04:18;;;;;;;27.40;16.00;;;-0.30;99.90;;;;;;4971523;28;20047;-64
2023/01/20 04:06:49;;;;;;;26.10;16.40;;;-0.30;99.90;;;;;;4955126;28;20430;-64
2023/01/20 04:09:21;;;;;;;27.50;16.52;;;-0.30;99.90;;;;;;4971695;28;20065;-65
2023/01/20 04:11:48;;;;;;;29.83;15.75;;;-0.20;99.90;;;;;;4955374;28;20062;-64
2023/01/20 04:14:15;;;;;;;27.95;16.02;;;-0.20;99.90;;;;;;4955219;28;20051;-64
2023/01/20 04:16:43;;;;;;;30.20;16.98;;;-0.20;99.90;;;;;;4972008;28;20050;-67
2023/01/20 04:19:10;;;;;;;25.95;16.77;;;-0.20;99.90;;;;;;4955339;28;20055;-64
2023/01/20 04:21:43;;;;;;;26.58;15.77;;;-0.20;99.90;;;;;;4953478;28;20057;-65
2023/01/20 04:24:17;;;;;;;29.45;16.08;;;-0.20;99.90;;;;;;4969655;28;20047;-65
2023/01/20 04:26:44;;;;;;;29.77;16.67;;;-0.20;99.90;;;;;;4954744;28;20138;-65
2023/01/20 04:29:11;;;;;;;32.33;16.77;;;-0.10;99.90;;;;;;4971407;28;20054;-64
2023/01/20 04:31:38;;;;;;;25.98;15.15;;;-0.10;99.90;;;;;;4970854;28;20046;-64
2023/01/20 04:34:05;;;;;;;30.77;16.00;;;-0.10;99.90;;;;;;4971089;28;20071;-64
2023/01/20 04:36:32;;;;;;;28.27;17.00;;;-0.10;99.90;;;;;;4954797;28;20050;-64
2023/01/20 04:39:00;;;;;;;26.13;15.75;;;-0.10;99.90;;;;;;4951844;28;20097;-65
2023/01/20 04:41:27;;;;;;;25.50;15.07;;;-0.10;99.90;;;;;;4971988;28;20058;-65
2023/01/20 04:43:54;;;;;;;25.00;15.13;;;0.00;99.90;;;;;;4971598;28;20205;-64
2023/01/20 04:46:21;;;;;;;24.17;15.23;;;-0.10;99.90;;;;;;4958206;28;20062;-66
2023/01/20 04:48:48;;;;;;;24.67;13.07;;;-0.10;99.90;;;;;;4975692;28;20520;-64
2023/01/20 04:51:15;;;;;;;24.17;14.63;;;-0.10;99.90;;;;;;4957383;28;20050;-66
2023/01/20 04:53:42;;;;;;;22.33;12.30;;;-0.10;99.90;;;;;;4958750;28;20050;-66
2023/01/20 04:56:13;;;;;;;24.38;13.80;;;-0.20;99.90;;;;;;4958210;28;20054;-65
2023/01/20 04:58:39;;;;;;;;;;;-0.20;99.90;;;;;;4957177;28;20389;-64
2023/01/20 05:01:07;;;;;;;23.85;13.32;;;-0.20;99.90;;;;;;4975152;28;20386;-66
2023/01/20 05:03:34;;;;;;;26.80;13.48;;;-0.20;99.90;;;;;;4958233;28;20059;-64
2023/01/20 05:06:00;;;;;;;26.00;13.18;;;-0.20;99.90;;;;;;4974407;28;20054;-64
2023/01/20 05:08:27;;;;;;;22.15;13.05;;;-0.20;99.90;;;;;;4975234;28;20047;-65
2023/01/20 05:10:54;;;;;;;27.65;13.68;;;-0.20;99.90;;;;;;4974700;28;20050;-65
2023/01/20 05:13:23;;;;;;;24.20;13.38;;;-0.20;99.90;;;;;;4956735;28;20050;-63
2023/01/20 05:15:50;;;;;;;26.38;13.70;;;-0.20;99.90;;;;;;4974747;28;20049;-65
2023/01/20 05:18:16;;;;;;;23.38;13.18;;;-0.20;99.90;;;;;;4957522;28;20503;-65
2023/01/20 05:20:45;;;;;;;24.23;13.68;;;-0.20;99.90;;;;;;4956561;28;20051;-64
2023/01/20 05:23:12;;;;;;;24.77;13.38;;;0.00;99.90;;;;;;4957250;28;20046;-65
2023/01/20 05:25:39;;;;;;;26.38;12.77;;;-0.20;99.90;;;;;;4974004;28;20061;-65
2023/01/20 05:28:06;;;;;;;23.00;12.20;;;-0.20;99.90;;;;;;4939882;28;20055;-65
2023/01/20 05:30:34;;;;;;;20.67;11.82;;;-0.30;99.90;;;;;;4971702;28;20054;-64
2023/01/20 05:33:01;;;;;;;24.95;12.52;;;-0.10;99.90;;;;;;4968017;28;20054;-65
2023/01/20 05:35:28;;;;;;;21.92;11.73;;;-0.30;99.90;;;;;;4955907;28;20051;-65
2023/01/20 05:37:55;;;;;;;21.70;12.48;;;-0.30;99.90;;;;;;4971751;28;20062;-65
2023/01/20 05:40:22;;;;;;;21.38;12.15;;;0.00;99.90;;;;;;4955233;28;20106;-64
2023/01/20 05:42:49;;;;;;;22.30;12.57;;;-0.30;99.90;;;;;;4956275;28;20116;-65
2023/01/20 05:45:16;;;;;;;25.75;12.18;;;-0.30;99.90;;;;;;4971231;28;20051;-65
2023/01/20 05:47:44;;;;;;;24.15;13.40;;;-0.20;99.90;;;;;;4950740;28;20054;-65
2023/01/20 05:50:12;;;;;;;20.85;11.48;;;-0.20;99.90;;;;;;4954508;28;20411;-65
2023/01/20 05:52:39;;;;;;;22.60;12.98;;;-0.20;99.90;;;;;;4974391;28;20130;-65
2023/01/20 05:55:06;;;;;;;21.98;12.60;;;-0.20;99.90;;;;;;4956122;28;20046;-65
2023/01/20 05:57:33;;;;;;;23.30;13.05;;;-0.20;99.90;;;;;;4953241;28;20418;-65
2023/01/20 06:00:00;;;;;;;21.80;13.18;;;-0.20;99.90;;;;;;4974289;28;20054;-64
2023/01/20 06:02:29;;;;;;;19.25;11.32;;;-0.10;99.90;;;;;;4952090;28;20043;-65
2023/01/20 06:05:00;;;;;;;21.75;12.48;;;-0.20;99.90;;;;;;4972327;28;20526;-64
2023/01/20 06:07:27;;;;;;;22.05;11.93;;;-0.20;99.90;;;;;;4974816;28;20054;-64
2023/01/20 06:09:54;;;;;;;22.75;11.82;;;-0.20;99.90;;;;;;4976220;28;20047;-65
2023/01/20 06:12:21;;;;;;;21.58;12.38;;;-0.20;99.90;;;;;;4960984;28;20604;-65
2023/01/20 06:14:48;;;;;;;23.50;13.70;;;-0.20;99.90;;;;;;4975047;28;20050;-65
2023/01/20 06:17:15;;;;;;;23.27;12.88;;;-0.20;99.90;;;;;;4954569;28;20507;-64
2023/01/20 06:19:42;;;;;;;23.15;12.45;;;-0.20;99.90;;;;;;4953172;28;20058;-65
2023/01/20 06:22:14;;;;;;;24.38;12.20;;;-0.20;99.90;;;;;;4958572;28;20053;-64
2023/01/20 06:24:41;;;;;;;23.52;12.68;;;-0.20;99.90;;;;;;4959866;28;20105;-65
2023/01/20 06:27:09;;;;;;;23.45;12.40;;;-0.20;99.90;;;;;;4987961;28;20047;-64
2023/01/20 06:29:36;;;;;;;27.65;14.35;;;-0.20;99.90;;;;;;4988789;28;20046;-65
2023/01/20 06:32:03;;;;;;;29.52;13.95;;;-0.20;99.90;;;;;;4984547;28;20047;-65
2023/01/20 06:34:30;;;;;;;24.42;14.30;;;-0.20;99.90;;;;;;4971707;28;20522;-64
2023/01/20 06:36:57;;;;;;;21.52;12.43;;;-0.20;99.90;;;;;;4971425;28;20069;-66
2023/01/20 06:39:26;;;;;;;25.70;14.18;;;-0.20;99.90;;;;;;4989643;28;20054;-66
2023/01/20 06:41:53;;;;;;;26.85;14.45;;;-0.20;99.90;;;;;;4987965;28;20142;-66
2023/01/20 06:44:19;;;;;;;24.55;14.55;;;-0.20;99.90;;;;;;4987412;28;20399;-66
2023/01/20 06:46:46;;;;;;;27.45;14.05;;;-0.10;99.90;;;;;;4971891;28;20414;-65
2023/01/20 06:49:13;;;;;;;25.50;12.70;;;-0.10;99.90;;;;;;4972959;28;20101;-65
2023/01/20 06:51:41;;;;;;;26.70;14.57;;;-0.10;99.90;;;;;;4987683;28;20415;-66
2023/01/20 06:54:08;;;;;;;25.13;14.30;;;-0.10;99.90;;;;;;4972895;28;20097;-63
2023/01/20 06:56:36;;;;;;;26.52;13.65;;;-0.10;99.90;;;;;;4971036;28;20396;-63
2023/01/20 06:59:03;;;;;;;23.50;14.00;;;-0.10;99.90;;;;;;4969819;28;20058;-64
2023/01/20 07:01:31;;;;;;;29.75;15.00;;;-0.10;99.90;;;;;;4975976;28;20076;-63
2023/01/20 07:03:58;;;;;;;23.73;14.55;;;-0.10;99.90;;;;;;4956917;28;20476;-64
2023/01/20 07:06:28;;;;;;;27.48;15.15;;;-0.10;99.90;;;;;;4972238;28;20058;-64
2023/01/20 07:08:56;;;;;;;32.70;15.90;;;-0.10;99.90;;;;;;4992151;28;20042;-65
2023/01/20 07:11:23;;;;;;;27.60;15.65;;;-0.10;99.90;;;;;;4974064;28;20054;-64
2023/01/20 07:13:51;;;;;;;25.38;14.50;;;-0.10;99.90;;;;;;4983053;28;20055;-64
2023/01/20 07:16:18;;;;;;;30.02;15.93;;;-0.10;99.90;;;;;;4958287;28;20073;-66
2023/01/20 07:18:48;;;;;;;26.80;13.68;;;0.00;99.90;;;;;;4991495;28;20042;-65
2023/01/20 07:21:16;;;;;;;28.85;15.88;;;-0.10;99.90;;;;;;4991736;28;20053;-65
2023/01/20 07:23:43;;;;;;;31.02;16.13;;;-0.10;99.90;;;;;;4991999;28;20065;-63
2023/01/20 07:26:11;;;;;;;27.60;14.93;;;-0.10;99.90;;;;;;4970541;28;20065;-63
2023/01/20 07:28:39;;;;;;;24.10;13.85;;;0.00;99.90;;;;;;4949512;28;20065;-63
2023/01/20 07:31:09;;;;;;;26.80;14.60;;;0.00;99.90;;;;;;4969466;28;20073;-63
2023/01/20 07:33:36;;;;;;;26.65;14.02;;;0.00;99.90;;;;;;4939468;28;20043;-63
2023/01/20 07:36:04;;;;;;;29.02;15.48;;;-0.10;99.90;;;;;;4984180;28;20050;-63
2023/01/20 07:38:31;;;;;;;25.15;14.15;;;-0.10;99.90;;;;;;4970227;28;20061;-63
2023/01/20 07:40:59;;;;;;;28.35;15.35;;;0.00;99.90;;;;;;4971256;28;20047;-64
2023/01/20 07:43:26;;;;;;;24.23;13.73;;;-0.10;99.90;;;;;;4964806;28;20058;-63
2023/01/20 07:45:55;;;;;;;24.45;14.13;;;-0.10;99.90;;;;;;4969540;28;20055;-64
2023/01/20 07:48:24;;;;;;;29.58;15.13;;;-0.10;99.90;;;;;;4970851;28;20101;-63
2023/01/20 07:51:00;;;;;;;26.88;14.13;;;-0.10;99.90;;;;;;4969646;28;20046;-63
2023/01/20 07:53:27;;;;;;;25.63;14.77;;;0.20;99.90;;;;;;4954431;28;20047;-63
2023/01/20 07:55:54;;;;;;;30.83;15.05;;;0.00;99.90;;;;;;4954539;28;20102;-64
2023/01/20 07:58:21;;;;;;;31.38;14.48;;;0.00;99.90;;;;;;4954993;28;20581;-64
2023/01/20 08:00:48;;;;;;;27.35;13.70;;;0.00;99.90;;;;;;4970729;28;20121;-64
2023/01/20 08:03:15;;;;;;;30.05;15.45;;;0.00;99.90;;;;;;4950477;28;20084;-63
2023/01/20 08:05:43;;;;;;;24.77;14.68;;;0.00;99.90;;;;;;4954407;28;20055;-63
2023/01/20 08:08:10;;;;;;;32.83;15.32;;;0.10;99.90;;;;;;4979023;28;20042;-64
2023/01/20 08:10:56;;;;;;;29.25;16.15;;;0.10;99.90;;;;;;4977911;28;20046;-64
2023/01/20 08:13:23;;;;;;;27.25;15.73;;;0.10;99.90;;;;;;4971921;28;20049;-66
2023/01/20 08:15:50;;;;;;;31.23;17.02;;;0.10;99.90;;;;;;4967636;28;20051;-64
2023/01/20 08:18:17;;;;;;;26.60;14.43;;;0.10;99.90;;;;;;4988090;28;20054;-65
2023/01/20 08:20:45;;;;;;;27.42;15.50;;;0.30;99.90;;;;;;4973815;28;20483;-63
2023/01/20 08:23:12;;;;;;;31.52;16.23;;;0.20;99.90;;;;;;4973602;28;20046;-63
2023/01/20 08:25:39;;;;;;;29.20;15.75;;;0.20;99.90;;;;;;4973313;28;20055;-65
2023/01/20 08:28:06;;;;;;;28.85;16.83;;;0.20;99.90;;;;;;4969739;28;20148;-65
2023/01/20 08:30:33;;;;;;;28.77;16.35;;;0.20;99.90;;;;;;4976558;28;20061;-64
2023/01/20 08:33:00;;;;;;;31.42;16.58;;;0.30;99.90;;;;;;4995120;28;20054;-64
2023/01/20 08:35:27;;;;;;;32.17;16.92;;;0.30;99.90;;;;;;4974888;28;20073;-64
2023/01/20 08:37:55;;;;;;;30.52;17.13;;;0.30;99.90;;;;;;4974463;28;20109;-65
2023/01/20 08:40:22;;;;;;;27.33;16.00;;;0.30;99.90;;;;;;4957737;28;20062;-65
2023/01/20 08:42:49;;;;;;;28.60;15.38;;;0.30;99.90;;;;;;4973015;28;20436;-64
2023/01/20 08:45:16;;;;;;;38.28;18.27;;;0.30;99.90;;;;;;4958431;28;20109;-65
2023/01/20 08:47:44;;;;;;;30.90;16.38;;;0.50;99.90;;;;;;4975706;28;20051;-66
2023/01/20 08:50:14;;;;;;;26.55;14.98;;;0.40;99.90;;;;;;4957511;28;20050;-65
2023/01/20 08:52:40;;;;;;;29.08;16.17;;;0.40;99.90;;;;;;4972944;28;20053;-66
2023/01/20 08:55:09;;;;;;;32.47;16.65;;;0.40;99.90;;;;;;4967981;28;20105;-66
2023/01/20 08:57:36;;;;;;;33.97;17.05;;;0.40;99.90;;;;;;4974085;28;20046;-65
2023/01/20 09:00:05;;;;;;;29.13;16.50;;;0.40;99.90;;;;;;4974283;28;20054;-65
2023/01/20 09:02:32;;;;;;;28.83;16.52;;;0.50;99.90;;;;;;4973233;28;20086;-65
2023/01/20 09:04:59;;;;;;;26.27;15.00;;;0.50;99.90;;;;;;4957349;28;20061;-64
2023/01/20 09:07:26;;;;;;;32.42;17.50;;;0.80;99.90;;;;;;4957498;28;20062;-65
2023/01/20 09:09:53;;;;;;;33.30;15.60;;;0.50;99.90;;;;;;4973950;28;20313;-66
2023/01/20 09:12:22;;;;;;;30.65;16.35;;;0.60;99.90;;;;;;4956476;28;20074;-65
2023/01/20 09:14:49;;;;;;;34.75;17.35;;;0.60;99.90;;;;;;4972858;28;20058;-66
2023/01/20 09:17:16;;;;;;;30.58;17.33;;;0.70;99.90;;;;;;4973971;28;20054;-66
2023/01/20 09:19:42;;;;;;;34.45;17.23;;;0.70;99.90;;;;;;4957013;28;20050;-65
2023/01/20 09:22:09;;;;;;;31.65;17.23;;;0.70;99.90;;;;;;4973582;28;20392;-65
2023/01/20 09:24:36;;;;;;;30.02;17.02;;;0.70;99.90;;;;;;4956639;28;20062;-65
2023/01/20 09:27:03;;;;;;;32.88;17.33;;;0.70;99.90;;;;;;4956255;28;20042;-65
2023/01/20 09:29:31;;;;;;;35.05;16.33;;;0.70;99.90;;;;;;4974939;28;20057;-65
2023/01/20 09:31:58;;;;;;;33.13;18.25;;;0.70;99.90;;;;;;4954725;28;20050;-66
2023/01/20 09:34:28;;;;;;;35.22;15.27;;;0.70;99.90;;;;;;4956707;28;20500;-66
2023/01/20 09:43:52;;;;;;;31.75;16.55;;;0.70;99.90;;;;;;4974501;28;20172;-65
2023/01/20 09:45:26;;;;;;;31.13;15.88;;;0.70;99.90;;;;;;4955160;28;20058;-64
2023/01/20 09:48:00;;;;;;;35.28;16.35;;;0.70;99.90;;;;;;4956531;28;20503;-65
2023/01/20 09:53:39;;;;;;;31.60;16.67;;;0.90;99.90;;;;;;4973550;28;20380;-65
2023/01/20 09:56:11;;;;;;;33.75;16.58;;;0.80;99.90;;;;;;4974494;28;20050;-65
2023/01/20 09:58:45;;;;;;;26.73;15.30;;;0.80;99.90;;;;;;4972542;28;20061;-64
2023/01/20 10:01:19;;;;;;;29.90;16.25;;;0.80;99.90;;;;;;4973637;28;20073;-65
2023/01/20 10:03:52;;;;;;;32.50;17.10;;;1.10;99.90;;;;;;4972415;28;20053;-64
2023/01/20 10:06:23;;;;;;;33.90;16.92;;;0.90;99.90;;;;;;4957599;28;20047;-65
2023/01/20 10:08:55;;;;;;;34.28;17.40;;;0.90;99.90;;;;;;4973235;28;20053;-64
2023/01/20 10:11:24;;;;;;;34.45;17.15;;;0.80;99.90;;;;;;4956184;28;20069;-64
2023/01/20 10:13:55;;;;;;;31.92;16.27;;;1.00;99.90;;;;;;4956488;28;20047;-65
2023/01/20 10:16:31;;;;;;;32.20;16.70;;;0.90;99.90;;;;;;4956130;28;20062;-65
2023/01/20 10:19:03;;;;;;;35.28;17.27;;;0.90;99.90;;;;;;4957112;28;20055;-65
2023/01/20 10:21:35;;;;;;;33.22;18.15;;;0.90;99.90;;;;;;4972484;28;20879;-64
2023/01/20 10:24:08;;;;;;;31.23;17.67;;;0.90;99.90;;;;;;4973512;28;20063;-64
2023/01/20 10:26:42;;;;;;;31.08;16.17;;;0.90;99.90;;;;;;4972004;28;20145;-65
2023/01/20 10:29:15;;;;;;;29.65;16.38;;;1.00;99.90;;;;;;4973273;28;20053;-64
2023/01/20 10:31:49;;;;;;;35.10;17.20;;;1.00;99.90;;;;;;4956355;28;20057;-65
2023/01/20 10:34:19;;;;;;;35.28;17.73;;;0.90;99.90;;;;;;4973330;28;20432;-64
2023/01/20 10:36:54;;;;;;;35.75;18.27;;;1.00;99.90;;;;;;4973973;28;20053;-64
2023/01/20 10:39:30;;;;;;;36.20;17.58;;;1.00;99.90;;;;;;4955726;28;20094;-64
2023/01/20 10:42:03;;;;;;;38.97;20.08;;;1.00;99.90;;;;;;4967981;28;20058;-65
2023/01/20 10:44:34;;;;;;;36.40;18.67;;;0.90;99.90;;;;;;4973439;28;20078;-65
2023/01/20 10:47:21;;;;;;;35.40;17.45;;;1.00;99.90;;;;;;4954226;28;20101;-64
2023/01/20 10:50:16;;;;;;;32.38;16.10;;;1.00;99.90;;;;;;4954728;28;20061;-64
2023/01/20 10:53:12;;;;;;;33.05;16.75;;;1.00;99.90;;;;;;4936222;28;20128;-65
2023/01/20 10:55:51;;;;;;;34.22;17.75;;;1.00;99.90;;;;;;4957103;28;20047;-64
2023/01/20 10:58:22;;;;;;;40.05;18.20;;;1.20;99.90;;;;;;4970654;28;20057;-64
2023/01/20 11:00:49;;;;;;;;;;;1.00;99.90;;;;;;4973593;28;20049;-65
2023/01/20 11:03:19;;;;;;;33.20;17.05;;;1.10;99.90;;;;;;4971138;28;19988;-65
2023/01/20 11:05:48;;;;;;;36.30;17.55;;;1.30;99.90;;;;;;4972423;28;20046;-64
2023/01/20 11:08:17;;;;;;;31.52;16.90;;;1.20;99.90;;;;;;4972807;28;20061;-63
2023/01/20 11:10:44;;;;;;;34.70;17.90;;;1.20;99.90;;;;;;4952974;28;20437;-64
2023/01/20 11:13:12;;;;;;;38.72;17.80;;;1.30;99.90;;;;;;4955767;28;20055;-64
2023/01/20 11:15:44;;;;;;;28.30;15.15;;;1.30;99.90;;;;;;4955768;28;20082;-63
2023/01/20 11:18:26;;;;;;;27.35;14.73;;;1.30;99.90;;;;;;4970811;28;20050;-65
2023/01/20 11:20:56;;;;;;;29.50;15.68;;;1.30;99.90;;;;;;4970931;28;20558;-65
2023/01/20 11:23:31;;;;;;;32.33;16.52;;;1.30;99.90;;;;;;4972522;28;20043;-65
2023/01/20 11:26:00;;;;;;;26.42;16.17;;;1.30;99.90;;;;;;4972614;28;20054;-66
2023/01/20 11:28:32;;;;;;;33.53;17.73;;;1.40;99.90;;;;;;4972400;28;20050;-65
2023/01/20 11:30:59;;;;;;;34.53;16.50;;;1.40;99.90;;;;;;4949025;28;20055;-65
2023/01/20 11:33:28;;;;;;;36.03;15.98;;;1.40;99.90;;;;;;4953711;28;20061;-65
2023/01/20 11:36:02;;;;;;;31.75;16.48;;;1.40;99.90;;;;;;4971923;28;20129;-65
2023/01/20 11:38:32;;;;;;;27.92;15.73;;;1.50;99.90;;;;;;4955078;28;20059;-65
2023/01/20 11:40:59;;;;;;;33.22;16.63;;;1.40;99.90;;;;;;4952437;28;20349;-67
2023/01/20 11:43:31;;;;;;;27.10;14.90;;;1.40;99.90;;;;;;4971318;28;20047;-65
2023/01/20 11:46:19;;;;;;;34.88;15.82;;;1.30;99.90;;;;;;4970649;28;20062;-65
2023/01/20 11:48:48;;;;;;;35.92;16.17;;;1.30;99.90;;;;;;4970496;28;20050;-65
2023/01/20 11:51:20;;;;;;;34.53;16.30;;;1.40;99.90;;;;;;4957866;28;20069;-65
2023/01/20 11:53:48;;;;;;;30.90;15.18;;;1.30;99.90;;;;;;4952943;28;20499;-65
2023/01/20 11:56:19;;;;;;;32.83;16.90;;;1.30;99.90;;;;;;4956408;28;20051;-64
2023/01/20 11:58:54;;;;;;;30.85;16.35;;;1.30;99.90;;;;;;4955440;28;20105;-65
2023/01/20 12:01:24;;;;;;;31.92;16.83;;;1.20;99.90;;;;;;4974113;28;20423;-65
2023/01/20 12:04:36;;;;;;;32.25;15.60;;;1.30;99.90;;;;;;4956994;28;20121;-66
2023/01/20 12:07:08;;;;;;;31.08;15.38;;;1.20;99.90;;;;;;4931740;29;20063;-66
2023/01/20 12:09:38;;;;;;;28.00;15.30;;;1.20;99.90;;;;;;4970152;28;20057;-66
2023/01/20 12:12:12;;;;;;;28.13;15.75;;;1.20;99.90;;;;;;4956041;28;20392;-65
2023/01/20 12:14:45;;;;;;;32.45;15.95;;;1.20;99.90;;;;;;4970671;28;20062;-65
2023/01/20 12:17:21;;;;;;;29.50;16.08;;;1.20;99.90;;;;;;4975764;28;20053;-65
2023/01/20 12:20:05;;;;;;;32.88;15.65;;;1.20;99.90;;;;;;4956515;28;20051;-66
2023/01/20 12:22:45;;;;;;;27.23;15.65;;;1.20;99.90;;;;;;4956231;28;20070;-67
2023/01/20 12:25:18;;;;;;;28.70;15.77;;;1.20;99.90;;;;;;4970168;28;20411;-65
2023/01/20 12:27:49;;;;;;;32.38;15.52;;;1.20;99.90;;;;;;4975190;28;20510;-66
2023/01/20 12:30:38;;;;;;;35.15;17.80;;;1.30;99.90;;;;;;4975950;28;20081;-66
2023/01/20 12:33:09;;;;;;;35.70;17.08;;;1.30;99.90;;;;;;4979593;28;20574;-65
2023/01/20 12:35:45;;;;;;;30.70;15.55;;;1.30;99.90;;;;;;4971213;28;20054;-65
2023/01/20 12:38:19;;;;;;;32.63;16.98;;;1.40;99.90;;;;;;4967991;28;20392;-65
2023/01/20 12:40:49;;;;;;;32.35;15.52;;;1.30;99.90;;;;;;4952312;28;20800;-65
2023/01/20 12:43:37;;;;;;;32.60;17.50;;;1.30;99.90;;;;;;4963737;28;20448;-64
2023/01/20 12:46:25;;;;;;;38.05;16.48;;;1.30;99.90;;;;;;4964721;28;20514;-65
2023/01/20 12:49:10;;;;;;;33.65;16.95;;;1.30;99.90;;;;;;4971722;28;20062;-65
2023/01/20 12:51:49;;;;;;;33.70;17.73;;;1.40;99.90;;;;;;4974468;28;20050;-64
2023/01/20 12:54:48;;;;;;;32.38;16.25;;;1.40;99.90;;;;;;4973425;28;20053;-65
2023/01/20 12:57:25;;;;;;;29.95;16.05;;;1.40;99.90;;;;;;4956113;28;20051;-65